sensor_id;sensor_type;location;lat;lon;timestamp;pressure;altitude;pressure_sealevel;temperature;humidity
29197;BME280;62796;42.654;23.316;2023-03-03T00:01:10;94632.66;;;6.90;58.97
29197;BME280;62796;42.654;23.316;2023-03-03T00:03:36;94632.38;;;6.79;59.71
29197;BME280;62796;42.654;23.316;2023-03-03T00:06:03;94629.91;;;6.81;59.54
29197;BME280;62796;42.654;23.316;2023-03-03T00:08:29;94618.47;;;6.74;59.67
29197;BME280;62796;42.654;23.316;2023-03-03T00:10:57;94619.66;;;6.63;60.06
29197;BME280;62796;42.654;23.316;2023-03-03T00:13:24;94609.75;;;6.57;59.96
29197;BME280;62796;42.654;23.316;2023-03-03T00:15:52;94620.13;;;6.71;59.62
29197;BME280;62796;42.654;23.316;2023-03-03T00:18:32;94611.88;;;6.71;59.52
29197;BME280;62796;42.654;23.316;2023-03-03T00:21:01;94616.47;;;6.83;59.59
29197;BME280;62796;42.654;23.316;2023-03-03T00:23:38;94618.31;;;6.86;59.24
29197;BME280;62796;42.654;23.316;2023-03-03T00:26:27;94613.09;;;6.88;59.30
29197;BME280;62796;42.654;23.316;2023-03-03T00:28:54;94617.25;;;6.84;59.33
29197;BME280;62796;42.654;23.316;2023-03-03T00:31:34;94620.16;;;6.89;59.15
29197;BME280;62796;42.654;23.316;2023-03-03T00:34:26;94623.19;;;6.91;59.14
29197;BME280;62796;42.654;23.316;2023-03-03T00:36:54;94611.88;;;6.89;58.95
29197;BME280;62796;42.654;23.316;2023-03-03T00:39:38;94601.66;;;6.81;59.52
29197;BME280;62796;42.654;23.316;2023-03-03T00:42:13;94611.72;;;6.84;59.32
29197;BME280;62796;42.654;23.316;2023-03-03T00:50:14;94593.19;;;6.93;59.12
29197;BME280;62796;42.654;23.316;2023-03-03T00:53:11;94596.13;;;6.99;59.41
29197;BME280;62796;42.654;23.316;2023-03-03T00:55:37;94591.97;;;7.03;59.00
29197;BME280;62796;42.654;23.316;2023-03-03T00:58:05;94586.31;;;7.07;58.66
29197;BME280;62796;42.654;23.316;2023-03-03T01:00:31;94577.28;;;7.15;58.50
29197;BME280;62796;42.654;23.316;2023-03-03T01:02:59;94571.59;;;7.19;58.54
29197;BME280;62796;42.654;23.316;2023-03-03T01:05:26;94572.66;;;7.21;58.88
29197;BME280;62796;42.654;23.316;2023-03-03T01:07:51;94580.00;;;7.24;58.61
29197;BME280;62796;42.654;23.316;2023-03-03T01:10:17;94570.53;;;7.26;58.41
29197;BME280;62796;42.654;23.316;2023-03-03T01:12:42;94572.03;;;7.27;58.10
29197;BME280;62796;42.654;23.316;2023-03-03T01:15:09;94561.16;;;7.23;57.86
29197;BME280;62796;42.654;23.316;2023-03-03T01:17:35;94562.97;;;7.35;57.91
29197;BME280;62796;42.654;23.316;2023-03-03T01:20:01;94562.53;;;7.37;57.71
29197;BME280;62796;42.654;23.316;2023-03-03T01:22:26;94571.72;;;7.34;57.59
29197;BME280;62796;42.654;23.316;2023-03-03T01:24:52;94575.41;;;7.31;57.58
29197;BME280;62796;42.654;23.316;2023-03-03T01:27:17;94574.47;;;7.34;57.61
29197;BME280;62796;42.654;23.316;2023-03-03T01:29:43;94564.22;;;7.34;57.82
29197;BME280;62796;42.654;23.316;2023-03-03T01:32:08;94557.97;;;7.24;57.85
29197;BME280;62796;42.654;23.316;2023-03-03T01:34:33;94565.00;;;7.35;57.99
29197;BME280;62796;42.654;23.316;2023-03-03T01:36:59;94558.22;;;7.36;57.68
29197;BME280;62796;42.654;23.316;2023-03-03T01:39:25;94551.38;;;7.31;57.53
29197;BME280;62796;42.654;23.316;2023-03-03T01:41:51;94562.81;;;7.39;57.53
29197;BME280;62796;42.654;23.316;2023-03-03T01:44:16;94522.78;;;7.19;57.74
29197;BME280;62796;42.654;23.316;2023-03-03T01:46:48;94559.13;;;7.42;57.46
29197;BME280;62796;42.654;23.316;2023-03-03T01:49:25;94559.13;;;7.42;57.44
29197;BME280;62796;42.654;23.316;2023-03-03T01:51:59;94544.78;;;7.38;57.29
29197;BME280;62796;42.654;23.316;2023-03-03T01:54:38;94552.97;;;7.47;57.34
29197;BME280;62796;42.654;23.316;2023-03-03T01:57:09;94558.34;;;7.50;57.38
29197;BME280;62796;42.654;23.316;2023-03-03T01:59:40;94553.75;;;7.47;57.37
29197;BME280;62796;42.654;23.316;2023-03-03T02:02:08;94555.72;;;7.56;57.29
29197;BME280;62796;42.654;23.316;2023-03-03T02:04:34;94555.41;;;7.54;57.18
29197;BME280;62796;42.654;23.316;2023-03-03T02:07:04;94559.72;;;7.55;57.29
29197;BME280;62796;42.654;23.316;2023-03-03T02:09:48;94554.66;;;7.53;57.27
29197;BME280;62796;42.654;23.316;2023-03-03T02:12:18;94554.81;;;7.50;57.54
29197;BME280;62796;42.654;23.316;2023-03-03T02:14:44;94542.88;;;7.44;57.59
29197;BME280;62796;42.654;23.316;2023-03-03T02:17:10;94556.81;;;7.49;57.62
29197;BME280;62796;42.654;23.316;2023-03-03T02:22:04;94552.81;;;7.50;57.12
29197;BME280;62796;42.654;23.316;2023-03-03T02:26:58;94557.91;;;7.43;57.57
29197;BME280;62796;42.654;23.316;2023-03-03T02:29:24;94554.69;;;7.44;57.71
29197;BME280;62796;42.654;23.316;2023-03-03T02:31:49;94560.22;;;7.35;57.66
29197;BME280;62796;42.654;23.316;2023-03-03T02:34:15;94555.81;;;7.38;57.78
29197;BME280;62796;42.654;23.316;2023-03-03T02:36:40;94552.41;;;7.43;57.27
29197;BME280;62796;42.654;23.316;2023-03-03T02:39:18;94556.22;;;7.45;57.36
29197;BME280;62796;42.654;23.316;2023-03-03T02:44:26;94553.34;;;7.40;57.29
29197;BME280;62796;42.654;23.316;2023-03-03T02:46:54;94549.53;;;7.37;57.55
29197;BME280;62796;42.654;23.316;2023-03-03T02:49:25;94554.22;;;7.46;56.97
29197;BME280;62796;42.654;23.316;2023-03-03T02:51:51;94552.06;;;7.50;57.38
29197;BME280;62796;42.654;23.316;2023-03-03T02:54:18;94548.84;;;7.51;57.10
29197;BME280;62796;42.654;23.316;2023-03-03T02:56:45;94549.63;;;7.52;56.97
29197;BME280;62796;42.654;23.316;2023-03-03T02:59:11;94548.06;;;7.51;57.17
29197;BME280;62796;42.654;23.316;2023-03-03T03:01:36;94549.63;;;7.52;56.78
29197;BME280;62796;42.654;23.316;2023-03-03T03:04:13;94546.22;;;7.57;57.09
29197;BME280;62796;42.654;23.316;2023-03-03T03:06:39;94550.19;;;7.56;56.95
29197;BME280;62796;42.654;23.316;2023-03-03T03:09:06;94536.44;;;7.47;57.03
29197;BME280;62796;42.654;23.316;2023-03-03T03:11:32;94547.16;;;7.54;57.13
29197;BME280;62796;42.654;23.316;2023-03-03T03:13:59;94547.16;;;7.54;57.24
29197;BME280;62796;42.654;23.316;2023-03-03T03:16:25;94544.88;;;7.52;56.93
29197;BME280;62796;42.654;23.316;2023-03-03T03:18:50;94536.41;;;7.56;57.29
29197;BME280;62796;42.654;23.316;2023-03-03T03:21:16;94536.72;;;7.58;57.56
29197;BME280;62796;42.654;23.316;2023-03-03T03:23:42;94533.69;;;7.47;58.17
29197;BME280;62796;42.654;23.316;2023-03-03T03:26:08;94545.31;;;7.51;57.62
29197;BME280;62796;42.654;23.316;2023-03-03T03:28:34;94542.56;;;7.51;57.88
29197;BME280;62796;42.654;23.316;2023-03-03T03:30:59;94545.66;;;7.44;57.88
29197;BME280;62796;42.654;23.316;2023-03-03T03:33:25;94534.19;;;7.45;58.21
29197;BME280;62796;42.654;23.316;2023-03-03T03:35:53;94541.97;;;7.47;57.95
29197;BME280;62796;42.654;23.316;2023-03-03T03:38:20;94529.59;;;7.42;58.16
29197;BME280;62796;42.654;23.316;2023-03-03T03:40:45;94524.25;;;7.39;58.20
29197;BME280;62796;42.654;23.316;2023-03-03T03:43:11;94524.09;;;7.42;58.11
29197;BME280;62796;42.654;23.316;2023-03-03T03:45:36;94540.47;;;7.46;58.16
29197;BME280;62796;42.654;23.316;2023-03-03T03:48:02;94523.91;;;7.46;58.04
29197;BME280;62796;42.654;23.316;2023-03-03T03:50:27;94522.66;;;7.47;58.27
29197;BME280;62796;42.654;23.316;2023-03-03T03:52:53;94529.44;;;7.46;58.27
29197;BME280;62796;42.654;23.316;2023-03-03T03:55:18;94520.69;;;7.47;58.23
29197;BME280;62796;42.654;23.316;2023-03-03T03:57:43;94524.50;;;7.50;58.55
29197;BME280;62796;42.654;23.316;2023-03-03T04:00:10;94521.44;;;7.48;58.34
29197;BME280;62796;42.654;23.316;2023-03-03T04:02:36;94503.25;;;7.41;58.16
29197;BME280;62796;42.654;23.316;2023-03-03T04:05:01;94520.69;;;7.47;58.24
29197;BME280;62796;42.654;23.316;2023-03-03T04:07:27;94516.88;;;7.45;58.27
29197;BME280;62796;42.654;23.316;2023-03-03T04:09:52;94518.41;;;7.46;58.31
29197;BME280;62796;42.654;23.316;2023-03-03T04:12:18;94515.34;;;7.44;58.40
29197;BME280;62796;42.654;23.316;2023-03-03T04:14:43;94508.31;;;7.43;58.24
29197;BME280;62796;42.654;23.316;2023-03-03T04:17:16;94513.34;;;7.44;58.31
29197;BME280;62796;42.654;23.316;2023-03-03T04:19:42;94516.09;;;7.44;58.42
29197;BME280;62796;42.654;23.316;2023-03-03T04:22:07;94511.22;;;7.39;58.45
29197;BME280;62796;42.654;23.316;2023-03-03T04:24:33;94518.09;;;7.44;58.29
29197;BME280;62796;42.654;23.316;2023-03-03T04:26:58;94514.75;;;7.40;58.48
29197;BME280;62796;42.654;23.316;2023-03-03T04:29:25;94502.50;;;7.41;58.59
29197;BME280;62796;42.654;23.316;2023-03-03T04:31:50;94504.31;;;7.44;58.51
29197;BME280;62796;42.654;23.316;2023-03-03T04:34:16;94517.94;;;7.47;58.52
29197;BME280;62796;42.654;23.316;2023-03-03T04:36:41;94511.38;;;7.45;58.65
29197;BME280;62796;42.654;23.316;2023-03-03T04:39:06;94516.88;;;7.45;58.70
29197;BME280;62796;42.654;23.316;2023-03-03T04:41:32;94509.81;;;7.44;58.55
29197;BME280;62796;42.654;23.316;2023-03-03T04:43:57;94509.81;;;7.44;58.50
29197;BME280;62796;42.654;23.316;2023-03-03T04:46:23;94514.41;;;7.47;58.71
29197;BME280;62796;42.654;23.316;2023-03-03T04:48:48;94510.44;;;7.48;58.50
29197;BME280;62796;42.654;23.316;2023-03-03T04:51:14;94509.66;;;7.47;58.48
29197;BME280;62796;42.654;23.316;2023-03-03T04:53:41;94511.97;;;7.49;58.51
29197;BME280;62796;42.654;23.316;2023-03-03T04:56:06;94516.22;;;7.50;58.49
29197;BME280;62796;42.654;23.316;2023-03-03T04:58:32;94520.53;;;7.51;58.57
29197;BME280;62796;42.654;23.316;2023-03-03T05:00:57;94508.31;;;7.43;58.83
29197;BME280;62796;42.654;23.316;2023-03-03T05:03:23;94516.88;;;7.45;59.00
29197;BME280;62796;42.654;23.316;2023-03-03T05:05:49;94504.31;;;7.44;58.84
29197;BME280;62796;42.654;23.316;2023-03-03T05:08:14;94519.00;;;7.50;59.06
29197;BME280;62796;42.654;23.316;2023-03-03T05:10:40;94523.28;;;7.51;58.79
29197;BME280;62796;42.654;23.316;2023-03-03T05:13:06;94519.31;;;7.52;58.83
29197;BME280;62796;42.654;23.316;2023-03-03T05:15:32;94522.06;;;7.52;58.99
29197;BME280;62796;42.654;23.316;2023-03-03T05:17:58;94525.88;;;7.54;58.73
29197;BME280;62796;42.654;23.316;2023-03-03T05:20:24;94521.41;;;7.57;58.97
29197;BME280;62796;42.654;23.316;2023-03-03T05:22:50;94520.81;;;7.53;58.99
29197;BME280;62796;42.654;23.316;2023-03-03T05:25:16;94510.09;;;7.55;58.85
29197;BME280;62796;42.654;23.316;2023-03-03T05:27:42;94535.47;;;7.59;58.87
29197;BME280;62796;42.654;23.316;2023-03-03T05:30:09;94524.16;;;7.57;59.21
29197;BME280;62796;42.654;23.316;2023-03-03T05:32:35;94527.53;;;7.61;59.18
29197;BME280;62796;42.654;23.316;2023-03-03T05:35:00;94526.94;;;7.57;59.33
29197;BME280;62796;42.654;23.316;2023-03-03T05:37:26;94529.22;;;7.58;59.16
29197;BME280;62796;42.654;23.316;2023-03-03T05:39:51;94530.63;;;7.54;59.07
29197;BME280;62796;42.654;23.316;2023-03-03T05:42:17;94527.56;;;7.52;59.55
29197;BME280;62796;42.654;23.316;2023-03-03T05:44:42;94534.91;;;7.55;59.46
29197;BME280;62796;42.654;23.316;2023-03-03T05:47:08;94530.00;;;7.50;59.75
29197;BME280;62796;42.654;23.316;2023-03-03T05:49:34;94518.69;;;7.48;59.69
29197;BME280;62796;42.654;23.316;2023-03-03T05:51:59;94530.91;;;7.56;59.25
29197;BME280;62796;42.654;23.316;2023-03-03T05:54:25;94501.19;;;7.27;59.58
29197;BME280;62796;42.654;23.316;2023-03-03T05:56:51;94539.44;;;7.67;59.35
29197;BME280;62796;42.654;23.316;2023-03-03T05:59:16;94530.53;;;7.72;59.25
29197;BME280;62796;42.654;23.316;2023-03-03T06:01:42;94532.06;;;7.73;59.25
29197;BME280;62796;42.654;23.316;2023-03-03T06:04:07;94532.06;;;7.73;58.79
29197;BME280;62796;42.654;23.316;2023-03-03T06:06:34;94527.50;;;7.70;58.90
29197;BME280;62796;42.654;23.316;2023-03-03T06:08:59;94529.88;;;7.77;58.84
29197;BME280;62796;42.654;23.316;2023-03-03T06:11:24;94521.63;;;7.77;58.33
29197;BME280;62796;42.654;23.316;2023-03-03T06:13:50;94541.53;;;7.81;58.00
29197;BME280;62796;42.654;23.316;2023-03-03T06:16:16;94539.53;;;7.82;57.90
29197;BME280;62796;42.654;23.316;2023-03-03T06:18:41;94548.84;;;7.84;58.32
29197;BME280;62796;42.654;23.316;2023-03-03T06:21:06;94540.28;;;7.82;58.29
29197;BME280;62796;42.654;23.316;2023-03-03T06:23:32;94548.84;;;7.84;57.99
29197;BME280;62796;42.654;23.316;2023-03-03T06:25:57;94550.56;;;7.82;58.60
29197;BME280;62796;42.654;23.316;2023-03-03T06:28:23;94539.09;;;7.74;58.35
29197;BME280;62796;42.654;23.316;2023-03-03T06:30:52;94545.53;;;7.71;58.19
29197;BME280;62796;42.654;23.316;2023-03-03T06:33:18;94548.63;;;7.73;59.01
29197;BME280;62796;42.654;23.316;2023-03-03T06:35:43;94548.91;;;7.75;58.85
29197;BME280;62796;42.654;23.316;2023-03-03T06:38:08;94551.78;;;7.80;57.91
29197;BME280;62796;42.654;23.316;2023-03-03T06:40:34;94551.50;;;7.78;57.74
29197;BME280;62796;42.654;23.316;2023-03-03T06:42:59;94542.63;;;7.74;57.58
29197;BME280;62796;42.654;23.316;2023-03-03T06:45:27;94542.44;;;7.78;57.24
29197;BME280;62796;42.654;23.316;2023-03-03T06:47:52;94546.56;;;7.82;57.66
29197;BME280;62796;42.654;23.316;2023-03-03T06:50:19;94557.91;;;7.85;57.43
29197;BME280;62796;42.654;23.316;2023-03-03T06:52:45;94551.91;;;7.86;57.84
29197;BME280;62796;42.654;23.316;2023-03-03T06:55:12;94557.09;;;7.93;57.94
29197;BME280;62796;42.654;23.316;2023-03-03T06:57:41;94552.16;;;7.97;57.92
29197;BME280;62796;42.654;23.316;2023-03-03T07:00:14;94561.34;;;8.03;58.45
29197;BME280;62796;42.654;23.316;2023-03-03T07:02:40;94566.06;;;8.03;58.04
29197;BME280;62796;42.654;23.316;2023-03-03T07:05:11;94564.31;;;8.14;57.48
29197;BME280;62796;42.654;23.316;2023-03-03T07:07:38;94551.47;;;8.11;57.15
29197;BME280;62796;42.654;23.316;2023-03-03T07:10:11;94559.38;;;8.18;56.43
29197;BME280;62796;42.654;23.316;2023-03-03T07:12:37;94558.44;;;8.21;56.64
29197;BME280;62796;42.654;23.316;2023-03-03T07:15:15;94556.28;;;8.25;56.29
29197;BME280;62796;42.654;23.316;2023-03-03T07:17:46;94555.38;;;8.28;56.52
29197;BME280;62796;42.654;23.316;2023-03-03T07:20:24;94561.47;;;8.32;56.15
29197;BME280;62796;42.654;23.316;2023-03-03T07:22:52;94559.59;;;8.39;55.60
29197;BME280;62796;42.654;23.316;2023-03-03T07:25:22;94562.81;;;8.37;55.36
29197;BME280;62796;42.654;23.316;2023-03-03T07:27:52;94545.38;;;8.31;55.55
29197;BME280;62796;42.654;23.316;2023-03-03T07:30:23;94556.91;;;8.29;55.90
29197;BME280;62796;42.654;23.316;2023-03-03T07:32:52;94551.00;;;8.37;56.86
29197;BME280;62796;42.654;23.316;2023-03-03T07:40:48;94547.25;;;8.49;56.76
29197;BME280;62796;42.654;23.316;2023-03-03T07:43:38;94541.72;;;8.49;56.37
29197;BME280;62796;42.654;23.316;2023-03-03T07:48:40;94544.59;;;8.54;55.93
29197;BME280;62796;42.654;23.316;2023-03-03T07:51:21;94545.47;;;8.60;55.80
29197;BME280;62796;42.654;23.316;2023-03-03T07:53:47;94544.06;;;8.65;56.07
29197;BME280;62796;42.654;23.316;2023-03-03T07:56:29;94549.09;;;8.66;55.63
29197;BME280;62796;42.654;23.316;2023-03-03T07:58:56;94544.06;;;8.65;55.51
29197;BME280;62796;42.654;23.316;2023-03-03T08:01:42;94542.16;;;8.71;55.05
29197;BME280;62796;42.654;23.316;2023-03-03T08:04:20;94540.63;;;8.70;55.76
29197;BME280;62796;42.654;23.316;2023-03-03T08:06:51;94542.75;;;8.75;55.75
29197;BME280;62796;42.654;23.316;2023-03-03T08:11:48;94542.38;;;8.82;56.31
29197;BME280;62796;42.654;23.316;2023-03-03T08:14:24;94535.22;;;8.90;56.11
29197;BME280;62796;42.654;23.316;2023-03-03T08:16:50;94547.16;;;8.96;55.59
29197;BME280;62796;42.654;23.316;2023-03-03T08:19:16;94539.16;;;8.98;55.02
29197;BME280;62796;42.654;23.316;2023-03-03T08:21:42;94539.53;;;9.06;55.66
29197;BME280;62796;42.654;23.316;2023-03-03T08:24:07;94532.38;;;8.99;55.91
29197;BME280;62796;42.654;23.316;2023-03-03T08:26:33;94527.44;;;9.03;54.87
29197;BME280;62796;42.654;23.316;2023-03-03T08:28:59;94530.88;;;9.13;54.92
29197;BME280;62796;42.654;23.316;2023-03-03T08:31:25;94532.22;;;9.17;54.52
29197;BME280;62796;42.654;23.316;2023-03-03T08:33:51;94534.97;;;9.17;54.35
29197;BME280;62796;42.654;23.316;2023-03-03T08:36:16;94528.31;;;9.24;53.55
29197;BME280;62796;42.654;23.316;2023-03-03T08:38:42;94522.69;;;9.18;53.67
29197;BME280;62796;42.654;23.316;2023-03-03T08:41:08;94526.78;;;9.23;53.67
29197;BME280;62796;42.654;23.316;2023-03-03T08:43:33;94521.38;;;9.28;54.45
29197;BME280;62796;42.654;23.316;2023-03-03T08:46:01;94533.81;;;9.38;54.98
29197;BME280;62796;42.654;23.316;2023-03-03T08:48:27;94534.22;;;9.46;54.86
29197;BME280;62796;42.654;23.316;2023-03-03T08:50:53;94533.06;;;9.53;55.03
29197;BME280;62796;42.654;23.316;2023-03-03T08:53:19;94534.56;;;9.54;55.20
29197;BME280;62796;42.654;23.316;2023-03-03T08:55:45;94525.81;;;9.55;55.03
29197;BME280;62796;42.654;23.316;2023-03-03T08:58:12;94526.28;;;9.54;54.92
29197;BME280;62796;42.654;23.316;2023-03-03T09:00:38;94523.16;;;9.46;54.37
29197;BME280;62796;42.654;23.316;2023-03-03T09:03:03;94527.53;;;9.53;54.42
29197;BME280;62796;42.654;23.316;2023-03-03T09:05:31;94526.09;;;9.42;54.88
29197;BME280;62796;42.654;23.316;2023-03-03T09:07:57;94533.06;;;9.53;54.61
29197;BME280;62796;42.654;23.316;2023-03-03T09:10:24;94532.09;;;9.56;54.29
29197;BME280;62796;42.654;23.316;2023-03-03T09:12:57;94528.50;;;9.50;54.55
29197;BME280;62796;42.654;23.316;2023-03-03T09:15:33;94521.25;;;9.37;54.94
29197;BME280;62796;42.654;23.316;2023-03-03T09:18:18;94522.09;;;9.14;56.36
29197;BME280;62796;42.654;23.316;2023-03-03T09:20:46;94518.69;;;9.05;56.51
29197;BME280;62796;42.654;23.316;2023-03-03T09:23:29;94530.13;;;9.12;56.05
29197;BME280;62796;42.654;23.316;2023-03-03T09:25:57;94531.47;;;9.17;55.93
29197;BME280;62796;42.654;23.316;2023-03-03T09:28:29;94512.88;;;9.17;55.55
29197;BME280;62796;42.654;23.316;2023-03-03T09:31:01;94528.50;;;9.20;56.01
29197;BME280;62796;42.654;23.316;2023-03-03T09:33:39;94534.00;;;9.20;56.67
29197;BME280;62796;42.654;23.316;2023-03-03T09:36:27;94523.91;;;9.17;56.54
29197;BME280;62796;42.654;23.316;2023-03-03T09:38:54;94525.19;;;9.16;55.90
29197;BME280;62796;42.654;23.316;2023-03-03T09:55:28;94526.97;;;9.19;56.32
29197;BME280;62796;42.654;23.316;2023-03-03T09:58:40;94527.63;;;9.29;56.12
29197;BME280;62796;42.654;23.316;2023-03-03T10:06:45;94525.63;;;9.29;55.20
29197;BME280;62796;42.654;23.316;2023-03-03T10:09:35;94521.25;;;9.37;55.79
29197;BME280;62796;42.654;23.316;2023-03-03T10:12:32;94524.09;;;9.43;55.40
29197;BME280;62796;42.654;23.316;2023-03-03T10:15:20;94522.97;;;9.50;55.01
29197;BME280;62796;42.654;23.316;2023-03-03T10:23:23;94509.03;;;9.59;54.21
29197;BME280;62796;42.654;23.316;2023-03-03T10:26:01;94516.34;;;9.62;54.04
29197;BME280;62796;42.654;23.316;2023-03-03T10:31:16;94500.97;;;9.75;53.84
29197;BME280;62796;42.654;23.316;2023-03-03T10:34:02;94508.78;;;9.77;53.92
29197;BME280;62796;42.654;23.316;2023-03-03T10:41:53;94500.09;;;9.84;54.28
29197;BME280;62796;42.654;23.316;2023-03-03T10:50:20;94492.25;;;9.97;54.01
29197;BME280;62796;42.654;23.316;2023-03-03T10:55:20;94491.41;;;9.91;53.63
29197;BME280;62796;42.654;23.316;2023-03-03T11:00:40;94494.09;;;9.85;53.97
29197;BME280;62796;42.654;23.316;2023-03-03T11:03:32;94489.53;;;9.82;54.13
29197;BME280;62796;42.654;23.316;2023-03-03T11:06:04;94484.94;;;9.79;53.55
29197;BME280;62796;42.654;23.316;2023-03-03T11:08:43;94483.41;;;9.78;54.24
29197;BME280;62796;42.654;23.316;2023-03-03T11:16:29;94477.69;;;9.82;53.77
29197;BME280;62796;42.654;23.316;2023-03-03T11:21:48;94470.63;;;9.81;52.94
29197;BME280;62796;42.654;23.316;2023-03-03T11:35:48;94466.03;;;9.58;53.94
29197;BME280;62796;42.654;23.316;2023-03-03T11:38:46;94465.53;;;9.59;54.61
29197;BME280;62796;42.654;23.316;2023-03-03T11:43:45;94462.22;;;9.55;55.47
29197;BME280;62796;42.654;23.316;2023-03-03T11:46:24;94458.41;;;9.53;55.47
29197;BME280;62796;42.654;23.316;2023-03-03T11:49:08;94458.19;;;9.56;55.95
29197;BME280;62796;42.654;23.316;2023-03-03T11:54:37;94451.44;;;9.57;55.15
29197;BME280;62796;42.654;23.316;2023-03-03T11:57:18;94453.63;;;9.53;55.96
29197;BME280;62796;42.654;23.316;2023-03-03T12:00:07;94453.16;;;9.55;55.42
29197;BME280;62796;42.654;23.316;2023-03-03T12:08:15;94448.03;;;9.48;55.93
29197;BME280;62796;42.654;23.316;2023-03-03T12:10:51;94447.63;;;9.55;56.02
29197;BME280;62796;42.654;23.316;2023-03-03T12:13:37;94454.28;;;9.63;55.83
29197;BME280;62796;42.654;23.316;2023-03-03T12:24:20;94454.00;;;9.61;56.10
29197;BME280;62796;42.654;23.316;2023-03-03T12:32:52;94444.75;;;9.64;56.46
29197;BME280;62796;42.654;23.316;2023-03-03T12:35:51;94449.97;;;9.62;56.63
29197;BME280;62796;42.654;23.316;2023-03-03T12:38:37;94458.78;;;9.60;56.41
29197;BME280;62796;42.654;23.316;2023-03-03T12:41:59;94452.19;;;9.58;56.48
29197;BME280;62796;42.654;23.316;2023-03-03T12:46:59;94449.72;;;9.60;56.72
29197;BME280;62796;42.654;23.316;2023-03-03T12:49:53;94459.25;;;9.59;57.57
29197;BME280;62796;42.654;23.316;2023-03-03T12:52:39;94449.56;;;9.49;56.83
29197;BME280;62796;42.654;23.316;2023-03-03T13:01:05;94456.19;;;9.57;57.98
29197;BME280;62796;42.654;23.316;2023-03-03T13:03:52;94439.06;;;9.53;58.55
29197;BME280;62796;42.654;23.316;2023-03-03T13:08:52;94446.09;;;9.54;58.45
29197;BME280;62796;42.654;23.316;2023-03-03T13:17:28;94441.94;;;9.43;59.63
29197;BME280;62796;42.654;23.316;2023-03-03T13:19:57;94442.06;;;9.34;59.73
29197;BME280;62796;42.654;23.316;2023-03-03T13:30:47;94442.13;;;9.75;59.09
29197;BME280;62796;42.654;23.316;2023-03-03T13:33:19;94433.44;;;9.82;58.92
29197;BME280;62796;42.654;23.316;2023-03-03T13:35:57;94437.44;;;9.81;58.71
29197;BME280;62796;42.654;23.316;2023-03-03T13:38:32;94435.50;;;9.87;58.52
29197;BME280;62796;42.654;23.316;2023-03-03T13:43:33;94441.72;;;9.82;58.01
29197;BME280;62796;42.654;23.316;2023-03-03T13:46:22;94433.84;;;9.75;58.42
29197;BME280;62796;42.654;23.316;2023-03-03T13:54:08;94431.34;;;9.77;57.58
29197;BME280;62796;42.654;23.316;2023-03-03T14:13:05;94434.41;;;9.79;58.11
29197;BME280;62796;42.654;23.316;2023-03-03T14:18:30;94422.00;;;9.74;58.01
29197;BME280;62796;42.654;23.316;2023-03-03T14:21:14;94396.25;;;9.48;58.46
29197;BME280;62796;42.654;23.316;2023-03-03T14:26:18;94416.59;;;9.65;58.80
29197;BME280;62796;42.654;23.316;2023-03-03T14:28:46;94415.56;;;9.63;58.97
29197;BME280;62796;42.654;23.316;2023-03-03T14:31:20;94417.09;;;9.64;58.90
29197;BME280;62796;42.654;23.316;2023-03-03T14:36:41;94418.69;;;9.70;58.49
29197;BME280;62796;42.654;23.316;2023-03-03T14:41:55;94420.50;;;9.73;58.72
29197;BME280;62796;42.654;23.316;2023-03-03T14:44:47;94415.94;;;9.70;58.05
29197;BME280;62796;42.654;23.316;2023-03-03T14:47:25;94419.31;;;9.80;58.32
29197;BME280;62796;42.654;23.316;2023-03-03T14:49:53;94422.38;;;9.82;58.22
29197;BME280;62796;42.654;23.316;2023-03-03T14:52:23;94419.88;;;9.84;57.70
29197;BME280;62796;42.654;23.316;2023-03-03T14:54:59;94424.16;;;9.85;58.09
29197;BME280;62796;42.654;23.316;2023-03-03T15:02:43;94409.22;;;9.77;58.41
29197;BME280;62796;42.654;23.316;2023-03-03T15:05:26;94407.28;;;9.83;58.61
29197;BME280;62796;42.654;23.316;2023-03-03T15:08:13;94409.22;;;9.77;57.90
29197;BME280;62796;42.654;23.316;2023-03-03T15:10:43;94411.69;;;9.75;58.17
29197;BME280;62796;42.654;23.316;2023-03-03T15:18:29;94415.69;;;9.74;58.64
29197;BME280;62796;42.654;23.316;2023-03-03T15:21:07;94420.00;;;9.75;58.49
29197;BME280;62796;42.654;23.316;2023-03-03T15:26:44;94418.19;;;9.72;58.95
29197;BME280;62796;42.654;23.316;2023-03-03T15:29:52;94416.66;;;9.71;58.96
29197;BME280;62796;42.654;23.316;2023-03-03T15:40:47;94421.66;;;9.67;58.91
29197;BME280;62796;42.654;23.316;2023-03-03T15:43:39;94419.84;;;9.64;59.24
29197;BME280;62796;42.654;23.316;2023-03-03T15:57:12;94430.22;;;9.69;58.88
29197;BME280;62796;42.654;23.316;2023-03-03T16:02:27;94430.78;;;9.73;58.51
29197;BME280;62796;42.654;23.316;2023-03-03T16:05:19;94428.88;;;9.79;57.60
29197;BME280;62796;42.654;23.316;2023-03-03T16:13:36;94445.66;;;9.75;58.20
29197;BME280;62796;42.654;23.316;2023-03-03T16:16:09;94454.16;;;9.72;58.06
29197;BME280;62796;42.654;23.316;2023-03-03T16:23:56;94454.66;;;9.70;59.38
29197;BME280;62796;42.654;23.316;2023-03-03T16:32:22;94452.97;;;9.58;59.33
29197;BME280;62796;42.654;23.316;2023-03-03T16:34:59;94453.16;;;9.55;59.29
29197;BME280;62796;42.654;23.316;2023-03-03T16:40:20;94460.97;;;9.56;59.24
29197;BME280;62796;42.654;23.316;2023-03-03T16:42:56;94463.25;;;9.58;59.06
29197;BME280;62796;42.654;23.316;2023-03-03T16:45:27;94469.56;;;9.58;59.60
29197;BME280;62796;42.654;23.316;2023-03-03T16:50:45;94485.47;;;9.63;59.04
29197;BME280;62796;42.654;23.316;2023-03-03T16:58:30;94492.31;;;9.68;58.71
29197;BME280;62796;42.654;23.316;2023-03-03T17:09:20;94493.56;;;9.67;58.99
29197;BME280;62796;42.654;23.316;2023-03-03T17:19:43;94492.88;;;9.72;58.66
29197;BME280;62796;42.654;23.316;2023-03-03T17:22:20;94498.69;;;9.74;58.49
29197;BME280;62796;42.654;23.316;2023-03-03T17:28:07;94496.72;;;9.60;58.69
29197;BME280;62796;42.654;23.316;2023-03-03T17:30:44;94510.00;;;9.56;58.86
29197;BME280;62796;42.654;23.316;2023-03-03T17:33:35;94510.47;;;9.54;59.13
29197;BME280;62796;42.654;23.316;2023-03-03T17:46:29;94520.28;;;9.55;58.41